createdAt,value
2022-12-20T00:00:48.928Z,99885.84
2022-12-20T00:01:51.519Z,99882.41
2022-12-20T00:02:53.872Z,99878.06
2022-12-20T00:03:58.368Z,99876.31
2022-12-20T00:05:00.665Z,99867.66
2022-12-20T00:06:03.272Z,99871.97
2022-12-20T00:07:05.715Z,99876.25
2022-12-20T00:08:09.887Z,99873.66
2022-12-20T00:09:13.184Z,99879.72
2022-12-20T00:10:15.443Z,99867.66
2022-12-20T00:11:17.640Z,99868.53
2022-12-20T00:12:19.867Z,99865.13
2022-12-20T00:13:22.454Z,99871.16
2022-12-20T00:14:24.917Z,99878.03
2022-12-20T00:15:27.226Z,99871.97
2022-12-20T00:16:30.019Z,99863.38
2022-12-20T00:17:32.828Z,99859.91
2022-12-20T00:18:36.188Z,99869.44
2022-12-20T00:19:38.608Z,99868.56
2022-12-20T00:20:40.884Z,99861.66
2022-12-20T00:21:43.138Z,99870.31
2022-12-20T00:22:45.736Z,99859.91
2022-12-20T00:23:48.015Z,99853.81
2022-12-20T00:24:50.268Z,99850.31
2022-12-20T00:25:52.482Z,99856.44
2022-12-20T00:26:54.740Z,99840.91
2022-12-20T00:27:57.097Z,99847.84
2022-12-20T00:29:00.261Z,99848.69
2022-12-20T00:30:04.134Z,99843.47
2022-12-20T00:31:08.148Z,99839.97
2022-12-20T00:32:11.054Z,99835.63
2022-12-20T00:33:13.423Z,99830.44
2022-12-20T00:34:16.419Z,99840.78
2022-12-20T00:35:18.909Z,99837.25
2022-12-20T00:36:22.473Z,99832.03
2022-12-20T00:37:24.765Z,99821.59
2022-12-20T00:38:27.686Z,99817.25
2022-12-20T00:39:29.943Z,99819.81
2022-12-20T00:40:32.163Z,99823.28
2022-12-20T00:41:34.900Z,99831.09
2022-12-20T00:42:37.170Z,99828.44
2022-12-20T00:43:41.267Z,99825.84
2022-12-20T00:44:45.299Z,99832.72
2022-12-20T00:45:47.542Z,99831.91
2022-12-20T00:46:50.236Z,99841.47
2022-12-20T00:47:52.697Z,99837.19
2022-12-20T00:48:56.765Z,99850.22
2022-12-20T00:49:59.013Z,99852.81
2022-12-20T00:51:06.793Z,99845.97
2022-12-20T00:52:10.090Z,99853.78
2022-12-20T00:53:12.492Z,99858.06
2022-12-20T00:54:14.730Z,99858.06
2022-12-20T00:55:17.128Z,99855.47
2022-12-20T00:56:21.097Z,99858.84
2022-12-20T00:57:24.016Z,99861.41
2022-12-20T00:58:28.096Z,99854.47
2022-12-20T00:59:33.546Z,99851.88
2022-12-20T01:00:35.892Z,99849.22
2022-12-20T01:01:38.209Z,99853.53
2022-12-20T01:02:40.559Z,99851.81
2022-12-20T01:03:43.054Z,99856.13
2022-12-20T01:04:45.418Z,99852.63
2022-12-20T01:05:59.622Z,99843.00
2022-12-20T01:07:02.520Z,99843.84
2022-12-20T01:08:05.172Z,99842.97
2022-12-20T01:09:07.378Z,99839.47
2022-12-20T01:10:10.640Z,99846.38
2022-12-20T01:11:17.249Z,99841.09
2022-12-20T01:12:19.957Z,99842.00
2022-12-20T01:13:22.250Z,99837.66
2022-12-20T01:14:24.518Z,99845.41
2022-12-20T01:15:26.779Z,99840.28
2022-12-20T01:16:38.302Z,99839.41
2022-12-20T01:17:41.157Z,99833.31
2022-12-20T01:18:44.248Z,99825.59
2022-12-20T01:19:46.519Z,99831.69
2022-12-20T01:20:48.987Z,99831.69
2022-12-20T01:21:51.286Z,99829.91
2022-12-20T01:22:53.751Z,99825.50
2022-12-20T01:23:56.764Z,99825.50
2022-12-20T01:24:59.285Z,99830.69
2022-12-20T01:26:05.042Z,99828.03
2022-12-20T01:27:07.270Z,99822.78
2022-12-20T01:28:10.066Z,99827.19
2022-12-20T01:29:12.393Z,99827.28
2022-12-20T01:30:15.507Z,99827.38
2022-12-20T01:31:19.566Z,99825.59
2022-12-20T01:32:21.900Z,99817.72
2022-12-20T01:33:25.021Z,99818.41
2022-12-20T01:34:27.714Z,99827.06
2022-12-20T01:35:30.364Z,99818.41
2022-12-20T01:36:35.061Z,99815.91
2022-12-20T01:37:37.324Z,99821.41
2022-12-20T01:38:39.647Z,99824.88
2022-12-20T01:39:42.092Z,99835.25
2022-12-20T01:40:44.318Z,99825.69
2022-12-20T01:41:48.283Z,99825.59
2022-12-20T01:42:50.729Z,99824.88
2022-12-20T01:43:56.245Z,99818.00
2022-12-20T01:44:59.575Z,99822.31
2022-12-20T01:46:01.924Z,99823.03
2022-12-20T01:47:04.331Z,99820.41
2022-12-20T01:48:07.564Z,99821.19
2022-12-20T01:49:28.701Z,99817.59
2022-12-20T01:50:30.994Z,99819.16
2022-12-20T01:51:36.987Z,99824.28
2022-12-20T01:52:43.573Z,99822.44
2022-12-20T01:53:49.002Z,99810.25
2022-12-20T01:55:05.457Z,99808.63
2022-12-20T01:56:10.049Z,99807.91
2022-12-20T01:57:21.071Z,99814.78
2022-12-20T01:58:23.411Z,99809.47
2022-12-20T01:59:27.153Z,99811.16
2022-12-20T02:00:30.668Z,99816.44
